Time;durP1;ratioP1;P1;durP2;ratioP2;P2;SDS_P1;SDS_P2;PMS_P1;PMS_P2;Temp;Humidity;BMP_temperature;BMP_pressure;BME280_temperature;BME280_humidity;BME280_pressure;Samples;Min_cycle;Max_cycle;Signal;HPM_P1;HPM_P2
2021/09/27 00:00:37;;;;;;;3.20;2.90;;;22.60;99.90;;;;;;4974963;28;20030;-58
2021/09/27 00:03:04;;;;;;;3.05;2.75;;;22.60;99.90;;;;;;4975143;28;20108;-59
2021/09/27 00:05:31;;;;;;;3.45;3.15;;;22.60;99.90;;;;;;4974862;28;20027;-59
2021/09/27 00:07:57;;;;;;;3.97;2.92;;;22.60;99.90;;;;;;4974465;28;20035;-59
2021/09/27 00:10:35;;;;;;;2.85;2.65;;;22.60;99.90;;;;;;4974666;28;20031;-59
2021/09/27 00:13:02;;;;;;;3.13;2.83;;;22.60;99.90;;;;;;4975059;28;20054;-67
2021/09/27 00:15:33;;;;;;;3.63;3.30;;;22.60;99.90;;;;;;4974239;28;20042;-70
2021/09/27 00:17:59;;;;;;;3.17;2.88;;;22.60;99.90;;;;;;4974403;28;20050;-63
2021/09/27 00:20:25;;;;;;;3.47;2.92;;;22.60;99.90;;;;;;4974540;28;20061;-65
2021/09/27 00:22:51;;;;;;;3.28;2.67;;;22.60;99.90;;;;;;4974212;28;20022;-65
2021/09/27 00:25:20;;;;;;;3.28;2.88;;;22.50;99.90;;;;;;4974146;28;20035;-67
2021/09/27 00:27:46;;;;;;;3.42;2.85;;;22.60;99.90;;;;;;4973957;28;20426;-64
2021/09/27 00:30:14;;;;;;;3.35;2.97;;;22.60;99.90;;;;;;4974358;28;20046;-66
2021/09/27 00:32:40;;;;;;;3.15;2.80;;;22.60;99.90;;;;;;4974022;28;20058;-66
2021/09/27 00:35:08;;;;;;;3.83;3.42;;;22.60;99.90;;;;;;4957199;28;20030;-64
2021/09/27 00:37:34;;;;;;;3.58;3.10;;;22.50;99.90;;;;;;4974191;28;20027;-58
2021/09/27 00:40:00;;;;;;;4.78;3.15;;;22.50;99.90;;;;;;4973974;28;20041;-62
2021/09/27 00:42:26;;;;;;;3.58;3.10;;;22.50;99.90;;;;;;4974369;28;20027;-61
2021/09/27 00:44:52;;;;;;;3.33;3.03;;;22.50;99.90;;;;;;4973866;28;20379;-64
2021/09/27 00:47:18;;;;;;;3.05;2.75;;;22.50;99.90;;;;;;4956625;28;20418;-58
2021/09/27 00:49:44;;;;;;;3.28;2.97;;;22.50;99.90;;;;;;4973722;28;20034;-66
2021/09/27 00:52:10;;;;;;;3.58;3.00;;;22.50;99.90;;;;;;4974019;28;20033;-65
2021/09/27 00:54:37;;;;;;;3.50;3.20;;;22.50;99.90;;;;;;4973555;28;20476;-67
2021/09/27 00:57:24;;;;;;;3.40;2.95;;;22.50;99.90;;;;;;4956612;28;20058;-66
2021/09/27 00:59:53;;;;;;;3.10;2.65;;;22.50;99.90;;;;;;4956299;28;20130;-59
2021/09/27 01:02:19;;;;;;;3.08;2.80;;;22.50;99.90;;;;;;4973800;28;20023;-60
2021/09/27 01:04:45;;;;;;;3.10;2.80;;;22.50;99.90;;;;;;4973493;28;20106;-61
2021/09/27 01:07:40;;;;;;;3.08;2.78;;;22.50;99.90;;;;;;4973731;28;20030;-62
2021/09/27 01:10:14;;;;;;;3.38;3.08;;;22.40;99.90;;;;;;4973373;28;20023;-59
2021/09/27 01:13:03;;;;;;;3.42;2.95;;;22.50;99.90;;;;;;4973335;28;20031;-62
2021/09/27 01:16:05;;;;;;;3.33;3.03;;;22.50;99.90;;;;;;4973562;28;20042;-59
2021/09/27 01:18:48;;;;;;;3.55;2.80;;;22.40;99.90;;;;;;4973854;28;20542;-59
2021/09/27 01:21:51;;;;;;;3.28;2.72;;;22.40;99.90;;;;;;4956071;28;20394;-59
2021/09/27 01:24:35;;;;;;;3.35;3.05;;;22.50;99.90;;;;;;4972868;28;20039;-59
2021/09/27 01:27:26;;;;;;;;;;;22.40;99.90;;;;;;4973804;28;20038;-59
2021/09/27 01:30:26;;;;;;;3.05;2.67;;;22.40;99.90;;;;;;4957628;28;19913;-59
2021/09/27 01:32:58;;;;;;;3.20;2.90;;;22.40;99.90;;;;;;4973070;28;20034;-58
2021/09/27 01:35:54;;;;;;;3.33;3.03;;;22.40;99.90;;;;;;4973088;28;20050;-58
2021/09/27 01:38:29;;;;;;;3.33;2.72;;;22.40;99.90;;;;;;4973016;28;20019;-59
2021/09/27 01:41:00;;;;;;;3.30;3.00;;;22.40;99.90;;;;;;4972751;28;20529;-58
2021/09/27 01:43:34;;;;;;;3.17;2.85;;;22.40;99.90;;;;;;4955736;28;20479;-58
2021/09/27 01:46:22;;;;;;;4.95;3.15;;;22.40;99.90;;;;;;4973444;28;20110;-58
2021/09/27 01:48:51;;;;;;;4.25;2.80;;;22.40;99.90;;;;;;4972714;28;20027;-59
2021/09/27 01:51:28;;;;;;;3.10;2.80;;;22.40;99.90;;;;;;4972725;28;20033;-59
2021/09/27 01:54:02;;;;;;;3.08;2.75;;;22.30;99.90;;;;;;4972404;28;20035;-58
2021/09/27 01:57:05;;;;;;;3.75;2.95;;;22.40;99.90;;;;;;4972691;28;20031;-59
2021/09/27 02:00:16;;;;;;;3.65;2.88;;;22.30;99.90;;;;;;4973084;28;20484;-58
2021/09/27 02:02:50;;;;;;;3.72;2.90;;;22.30;99.90;;;;;;4897247;29;20141;-58
2021/09/27 02:05:29;;;;;;;3.22;2.92;;;22.30;99.90;;;;;;4967739;28;20070;-63
2021/09/27 02:08:04;;;;;;;3.10;2.80;;;22.30;99.90;;;;;;4972494;28;20026;-59
2021/09/27 02:10:36;;;;;;;2.60;2.40;;;22.30;99.90;;;;;;4972139;28;20598;-59
2021/09/27 02:13:24;;;;;;;3.20;2.90;;;22.30;99.90;;;;;;4972954;28;20061;-60
2021/09/27 02:16:12;;;;;;;3.40;3.10;;;22.30;99.90;;;;;;4972446;28;20065;-64
2021/09/27 02:18:51;;;;;;;3.13;2.83;;;22.30;99.90;;;;;;4972497;28;20089;-64
2021/09/27 02:21:28;;;;;;;2.92;2.63;;;22.30;99.90;;;;;;4972534;28;20023;-67
2021/09/27 02:24:16;;;;;;;2.92;2.72;;;22.30;99.90;;;;;;4972394;28;20023;-61
2021/09/27 02:26:47;;;;;;;3.30;3.00;;;22.30;99.90;;;;;;4940009;29;20110;-61
2021/09/27 02:29:13;;;;;;;3.05;2.75;;;22.30;99.90;;;;;;4934258;29;20024;-63
2021/09/27 02:31:47;;;;;;;3.80;3.00;;;22.30;99.90;;;;;;4933877;29;20055;-62
2021/09/27 02:34:41;;;;;;;3.20;2.67;;;22.30;99.90;;;;;;4934331;29;20083;-59
2021/09/27 02:37:25;;;;;;;3.80;2.72;;;22.30;99.90;;;;;;4918812;29;20036;-60
2021/09/27 02:40:27;;;;;;;3.20;2.80;;;22.30;99.90;;;;;;4933859;29;20032;-58
2021/09/27 02:43:00;;;;;;;3.58;3.08;;;22.30;99.90;;;;;;4933998;29;20032;-59
2021/09/27 02:45:28;;;;;;;3.08;2.78;;;22.30;99.90;;;;;;4934108;29;20023;-59
2021/09/27 02:48:01;;;;;;;3.72;3.25;;;22.30;99.90;;;;;;4933659;29;20079;-59
2021/09/27 02:50:33;;;;;;;3.22;2.92;;;22.20;99.90;;;;;;4933969;29;20039;-60
2021/09/27 02:52:59;;;;;;;3.30;2.85;;;22.20;99.90;;;;;;4933769;29;20175;-59
2021/09/27 02:55:40;;;;;;;3.38;3.08;;;22.20;99.90;;;;;;4936005;29;20114;-61
2021/09/27 02:58:59;;;;;;;3.05;2.70;;;22.20;99.90;;;;;;4953151;28;20027;-59
2021/09/27 03:01:35;;;;;;;2.72;2.53;;;22.20;99.90;;;;;;4893793;29;20037;-58
2021/09/27 03:04:08;;;;;;;4.47;3.25;;;22.20;99.90;;;;;;4954046;28;20035;-58
2021/09/27 03:06:59;;;;;;;3.20;2.90;;;22.20;99.90;;;;;;4956923;29;20038;-59
2021/09/27 03:09:33;;;;;;;2.85;2.65;;;22.20;99.90;;;;;;4939348;29;20523;-60
2021/09/27 03:12:17;;;;;;;3.53;3.00;;;22.20;99.90;;;;;;4955991;29;20031;-60
2021/09/27 03:14:49;;;;;;;;;;;22.20;99.90;;;;;;4956646;28;20035;-59
2021/09/27 03:17:18;;;;;;;3.65;3.35;;;22.20;99.90;;;;;;4956488;29;19913;-59
2021/09/27 03:20:04;;;;;;;3.50;3.20;;;22.20;99.90;;;;;;4956036;28;20027;-59
2021/09/27 03:22:39;;;;;;;3.53;3.05;;;22.20;99.90;;;;;;4956589;29;20060;-59
2021/09/27 03:25:17;;;;;;;3.65;2.90;;;22.20;99.90;;;;;;4962626;28;20035;-60
2021/09/27 03:27:48;;;;;;;4.50;3.13;;;22.20;99.90;;;;;;4975071;28;20031;-68
2021/09/27 03:30:18;;;;;;;3.30;3.00;;;22.20;99.90;;;;;;4975491;28;20030;-65
2021/09/27 03:33:05;;;;;;;3.38;3.08;;;22.20;99.90;;;;;;4975195;28;20085;-67
2021/09/27 03:35:40;;;;;;;3.35;3.05;;;22.20;99.90;;;;;;4958015;28;20418;-67
2021/09/27 03:38:26;;;;;;;3.33;2.83;;;22.10;99.90;;;;;;4975330;28;20019;-60
2021/09/27 03:41:07;;;;;;;4.20;3.28;;;22.20;99.90;;;;;;4974977;28;20435;-69
2021/09/27 03:43:33;;;;;;;3.55;3.22;;;22.20;99.90;;;;;;4957989;28;20095;-68
2021/09/27 03:46:10;;;;;;;3.90;3.50;;;22.20;99.90;;;;;;4975110;28;20019;-67
2021/09/27 03:48:57;;;;;;;3.67;3.10;;;22.10;99.90;;;;;;4974945;28;20037;-62
2021/09/27 03:52:02;;;;;;;4.28;3.17;;;22.10;99.90;;;;;;4975180;28;20057;-69
2021/09/27 03:54:41;;;;;;;3.85;3.45;;;22.10;99.90;;;;;;4936481;28;20042;-62
2021/09/27 03:57:14;;;;;;;4.40;3.55;;;22.10;99.90;;;;;;4957195;28;20399;-59
2021/09/27 04:00:08;;;;;;;4.00;3.60;;;22.10;99.90;;;;;;4974809;28;20027;-59
2021/09/27 04:02:45;;;;;;;3.35;3.05;;;22.10;99.90;;;;;;4967152;28;20491;-61
2021/09/27 04:05:32;;;;;;;4.30;3.60;;;22.10;99.90;;;;;;4974856;28;20038;-59
2021/09/27 04:08:28;;;;;;;3.88;3.47;;;22.10;99.90;;;;;;4974863;28;20058;-59
2021/09/27 04:11:32;;;;;;;4.13;3.72;;;22.10;99.90;;;;;;4974580;28;20039;-60
2021/09/27 04:14:09;;;;;;;4.13;3.72;;;22.10;99.90;;;;;;4922019;28;20040;-59
2021/09/27 04:16:56;;;;;;;4.05;3.22;;;22.10;99.90;;;;;;4973815;28;20027;-60
2021/09/27 04:19:28;;;;;;;4.55;3.60;;;22.10;99.90;;;;;;4957282;28;20468;-58
2021/09/27 04:21:59;;;;;;;4.60;3.67;;;22.10;99.90;;;;;;4974287;28;20081;-58
2021/09/27 04:24:53;;;;;;;4.18;3.78;;;22.10;99.90;;;;;;4974441;28;20387;-60
2021/09/27 04:27:27;;;;;;;3.95;3.55;;;22.10;99.90;;;;;;4974238;28;20440;-60
2021/09/27 04:30:02;;;;;;;3.92;3.50;;;22.10;99.90;;;;;;4974460;28;20034;-61
2021/09/27 04:32:31;;;;;;;4.05;3.65;;;22.10;99.90;;;;;;4973940;28;20023;-65
2021/09/27 04:35:16;;;;;;;4.45;3.85;;;22.10;99.90;;;;;;4956849;28;20035;-58
2021/09/27 04:37:48;;;;;;;3.83;3.47;;;22.10;99.90;;;;;;4974053;28;20018;-63
2021/09/27 04:40:18;;;;;;;3.95;3.55;;;22.10;99.90;;;;;;4973970;28;20097;-57
2021/09/27 04:42:58;;;;;;;4.28;3.53;;;22.10;99.90;;;;;;4954660;29;20023;-60
2021/09/27 04:46:06;;;;;;;3.47;3.17;;;22.10;99.90;;;;;;4954762;29;20490;-64
2021/09/27 04:48:38;;;;;;;3.45;3.15;;;22.10;99.90;;;;;;4908037;29;20056;-62
2021/09/27 04:51:24;;;;;;;4.35;3.70;;;22.10;99.90;;;;;;4954958;29;20082;-66
2021/09/27 04:54:35;;;;;;;3.85;3.45;;;22.00;99.90;;;;;;4954496;28;20030;-59
2021/09/27 04:57:07;;;;;;;3.85;3.42;;;22.10;99.90;;;;;;4968938;28;20035;-58
2021/09/27 04:59:47;;;;;;;4.35;3.95;;;22.10;99.90;;;;;;4973658;28;20109;-61
2021/09/27 05:02:13;;;;;;;3.80;3.50;;;22.00;99.90;;;;;;4973738;28;20034;-62
2021/09/27 05:04:48;;;;;;;3.63;3.20;;;22.10;99.90;;;;;;4973467;28;20029;-60
2021/09/27 05:07:26;;;;;;;3.88;3.20;;;22.10;99.90;;;;;;4973760;28;20035;-67
2021/09/27 05:10:10;;;;;;;3.90;3.28;;;22.00;99.90;;;;;;4973692;28;20027;-64
2021/09/27 05:13:02;;;;;;;3.83;3.15;;;22.10;99.90;;;;;;4973296;28;20438;-60
2021/09/27 05:15:52;;;;;;;3.10;2.80;;;22.00;99.90;;;;;;4973271;28;20117;-59
2021/09/27 05:18:41;;;;;;;3.40;3.10;;;22.00;99.90;;;;;;4971912;28;20030;-70
2021/09/27 05:21:37;;;;;;;3.40;3.10;;;22.00;99.90;;;;;;4973808;28;20054;-61
2021/09/27 05:24:17;;;;;;;3.58;3.13;;;22.00;99.90;;;;;;4973546;28;20109;-60
2021/09/27 05:27:04;;;;;;;4.30;3.08;;;22.00;99.90;;;;;;4954634;28;20038;-62
2021/09/27 05:30:16;;;;;;;3.58;3.28;;;22.00;99.90;;;;;;4972438;28;20039;-60
2021/09/27 05:33:15;;;;;;;3.42;3.13;;;22.00;99.90;;;;;;4972894;28;20497;-59
2021/09/27 05:36:11;;;;;;;4.53;3.65;;;22.00;99.90;;;;;;4973019;28;20082;-58
2021/09/27 05:39:07;;;;;;;3.75;3.45;;;22.00;99.90;;;;;;4971361;28;20042;-67
2021/09/27 05:41:57;;;;;;;4.47;2.88;;;22.10;99.90;;;;;;4972333;28;20505;-65
2021/09/27 05:44:52;;;;;;;3.55;2.90;;;22.00;99.90;;;;;;4972779;28;20035;-66
2021/09/27 05:47:29;;;;;;;3.65;3.03;;;22.00;99.90;;;;;;4972371;28;20033;-69
2021/09/27 05:50:10;;;;;;;2.60;2.40;;;22.00;99.90;;;;;;4972926;28;20030;-71
2021/09/27 05:52:54;;;;;;;3.60;3.30;;;22.00;99.90;;;;;;4972695;28;20098;-65
2021/09/27 05:55:42;;;;;;;3.20;2.90;;;22.00;99.90;;;;;;4972060;28;20042;-64
2021/09/27 05:58:28;;;;;;;3.78;2.95;;;22.00;99.90;;;;;;4973254;28;20023;-66
2021/09/27 06:01:06;;;;;;;3.40;3.10;;;22.00;99.90;;;;;;4972809;28;20082;-67
2021/09/27 06:03:58;;;;;;;4.70;2.88;;;22.00;99.90;;;;;;4972188;28;20026;-58
2021/09/27 06:06:42;;;;;;;3.60;3.00;;;22.00;99.90;;;;;;4972478;28;20042;-68
2021/09/27 06:09:21;;;;;;;;;;;22.00;99.90;;;;;;4973107;28;20050;-70
2021/09/27 06:12:21;;;;;;;3.22;2.80;;;22.00;99.90;;;;;;4972304;28;19956;-71
2021/09/27 06:14:50;;;;;;;3.83;2.72;;;22.00;99.90;;;;;;4972157;28;20046;-69
2021/09/27 06:17:29;;;;;;;3.13;2.83;;;22.00;99.90;;;;;;4972547;28;20051;-69
2021/09/27 06:20:18;;;;;;;3.70;2.95;;;22.00;99.90;;;;;;4972662;28;20030;-68
2021/09/27 06:23:10;;;;;;;2.92;2.58;;;22.00;99.90;;;;;;4972094;28;20023;-68
2021/09/27 06:25:45;;;;;;;4.15;3.30;;;22.00;99.90;;;;;;4955279;28;20104;-67
2021/09/27 06:28:37;;;;;;;3.85;2.70;;;22.00;99.90;;;;;;4972808;28;20574;-67
2021/09/27 06:31:22;;;;;;;4.20;2.80;;;22.00;99.90;;;;;;4972280;28;20097;-70
2021/09/27 06:33:53;;;;;;;3.88;2.85;;;21.90;99.90;;;;;;4971759;28;20057;-66
2021/09/27 06:36:26;;;;;;;2.88;2.63;;;21.90;99.90;;;;;;4972346;28;20031;-73
2021/09/27 06:38:55;;;;;;;5.97;4.07;;;21.90;99.90;;;;;;4974362;28;20015;-59
2021/09/27 06:41:24;;;;;;;6.43;4.82;;;21.90;99.90;;;;;;4976081;28;20030;-74
2021/09/27 06:43:50;;;;;;;6.07;4.82;;;21.90;99.90;;;;;;4975660;28;20475;-72
2021/09/27 06:46:16;;;;;;;5.93;5.25;;;21.90;99.90;;;;;;4976181;28;20130;-69
2021/09/27 06:48:42;;;;;;;8.00;5.00;;;21.80;99.90;;;;;;4976370;28;20050;-63
2021/09/27 06:51:07;;;;;;;6.43;4.93;;;21.80;99.90;;;;;;4974566;28;20023;-58
2021/09/27 06:53:33;;;;;;;7.30;4.55;;;21.80;99.90;;;;;;4975727;28;20442;-60
2021/09/27 06:56:00;;;;;;;6.43;5.15;;;21.80;99.90;;;;;;4975800;28;20076;-58
2021/09/27 06:58:26;;;;;;;8.15;5.57;;;21.80;99.90;;;;;;4975659;28;20045;-59
2021/09/27 07:00:53;;;;;;;7.47;5.40;;;21.80;99.90;;;;;;4975826;28;20038;-64
2021/09/27 07:03:20;;;;;;;5.28;4.75;;;21.70;99.90;;;;;;4975870;28;20031;-59
2021/09/27 07:05:45;;;;;;;6.68;4.82;;;21.70;99.90;;;;;;4975209;28;20038;-58
2021/09/27 07:08:11;;;;;;;6.13;5.15;;;21.70;99.90;;;;;;4975778;28;20043;-58
2021/09/27 07:10:37;;;;;;;7.80;5.20;;;21.70;99.90;;;;;;4957635;28;20546;-65
2021/09/27 07:13:03;;;;;;;7.13;5.20;;;21.60;99.90;;;;;;4975631;28;20023;-60
2021/09/27 07:15:28;;;;;;;8.63;4.68;;;21.60;99.90;;;;;;4973654;28;20034;-65
2021/09/27 07:17:54;;;;;;;6.03;4.40;;;21.50;99.90;;;;;;4973719;28;20531;-67
2021/09/27 07:20:25;;;;;;;6.53;4.88;;;21.50;99.90;;;;;;4973848;28;20030;-67
2021/09/27 07:22:51;;;;;;;6.63;4.40;;;21.50;99.90;;;;;;4971666;28;20530;-68
2021/09/27 07:25:17;;;;;;;5.57;4.38;;;21.40;99.90;;;;;;4973667;28;20518;-68
2021/09/27 07:27:47;;;;;;;6.53;4.63;;;21.40;99.90;;;;;;4973789;28;20030;-68
2021/09/27 07:30:13;;;;;;;6.03;4.25;;;21.40;99.90;;;;;;4962217;28;20027;-67
2021/09/27 07:32:40;;;;;;;8.43;4.32;;;21.40;99.90;;;;;;4975665;28;20027;-67
2021/09/27 07:35:09;;;;;;;6.28;3.83;;;21.40;99.90;;;;;;4975221;28;20034;-69
2021/09/27 07:37:37;;;;;;;9.18;4.32;;;21.40;99.90;;;;;;4956912;28;20145;-69
2021/09/27 07:40:03;;;;;;;6.57;3.90;;;21.40;99.90;;;;;;4958156;28;20039;-68
2021/09/27 07:42:29;;;;;;;5.05;4.25;;;21.40;99.90;;;;;;4974956;28;20023;-70
2021/09/27 07:44:54;;;;;;;8.05;4.07;;;21.40;99.90;;;;;;4974801;28;20110;-69
2021/09/27 07:47:20;;;;;;;5.63;3.47;;;21.40;99.90;;;;;;4974721;28;20027;-66
2021/09/27 07:49:45;;;;;;;6.05;3.80;;;21.40;99.90;;;;;;4973577;28;20031;-64
2021/09/27 07:52:11;;;;;;;4.82;3.20;;;21.40;99.90;;;;;;4975019;28;20097;-69
2021/09/27 07:54:39;;;;;;;5.63;3.88;;;21.40;99.90;;;;;;4972466;28;20034;-77
2021/09/27 07:57:05;;;;;;;4.15;3.65;;;21.50;99.90;;;;;;4974022;28;20070;-70
2021/09/27 07:59:31;;;;;;;4.35;3.28;;;21.50;99.90;;;;;;4974456;28;20063;-63
2021/09/27 08:01:56;;;;;;;7.72;3.65;;;21.50;99.90;;;;;;4974374;28;20051;-66
2021/09/27 08:04:22;;;;;;;5.95;3.42;;;21.50;99.90;;;;;;4974641;28;20033;-69
2021/09/27 08:06:48;;;;;;;5.30;3.22;;;21.50;99.90;;;;;;4974742;28;20033;-65
2021/09/27 08:09:13;;;;;;;5.05;3.47;;;21.50;99.90;;;;;;4974980;28;20029;-65
2021/09/27 08:11:40;;;;;;;5.85;3.45;;;21.50;99.90;;;;;;4974434;28;20019;-65
2021/09/27 08:14:07;;;;;;;4.22;3.17;;;21.50;99.90;;;;;;4974498;28;20030;-67
2021/09/27 08:16:33;;;;;;;5.20;3.00;;;21.60;99.90;;;;;;4974012;28;20031;-67
2021/09/27 08:18:59;;;;;;;4.45;3.13;;;21.60;99.90;;;;;;4974565;28;20027;-68
2021/09/27 08:21:25;;;;;;;5.28;3.17;;;21.60;99.90;;;;;;4974647;28;20094;-64
2021/09/27 08:23:50;;;;;;;6.88;3.75;;;21.60;99.90;;;;;;4974148;28;20029;-67
2021/09/27 08:26:18;;;;;;;5.82;3.30;;;21.60;99.90;;;;;;4974154;28;20035;-69
2021/09/27 08:28:46;;;;;;;4.63;2.92;;;21.60;99.90;;;;;;4974304;28;20023;-67
2021/09/27 08:31:17;;;;;;;5.13;3.03;;;21.60;99.90;;;;;;4974153;28;20031;-67
2021/09/27 08:33:44;;;;;;;5.20;3.05;;;21.60;99.90;;;;;;4974202;28;20030;-64
2021/09/27 08:36:12;;;;;;;4.80;2.83;;;21.60;99.90;;;;;;4974165;28;20038;-67
2021/09/27 08:38:38;;;;;;;6.72;3.40;;;21.60;99.90;;;;;;4973834;28;20099;-63
2021/09/27 08:41:09;;;;;;;4.78;2.95;;;21.60;99.90;;;;;;4974038;28;20027;-61
2021/09/27 08:44:01;;;;;;;4.15;3.00;;;21.60;99.90;;;;;;4973207;28;20030;-65
2021/09/27 08:46:51;;;;;;;6.70;3.22;;;21.70;99.90;;;;;;4973522;28;20034;-63
2021/09/27 08:49:38;;;;;;;5.85;3.03;;;21.70;99.90;;;;;;4955060;29;20027;-62
2021/09/27 08:52:05;;;;;;;5.70;3.10;;;21.70;99.90;;;;;;4954646;29;20090;-63
2021/09/27 08:54:33;;;;;;;4.40;2.70;;;21.70;99.90;;;;;;4970075;28;20085;-62
2021/09/27 08:57:06;;;;;;;5.07;2.78;;;21.70;99.90;;;;;;4974581;28;20031;-63
2021/09/27 08:59:47;;;;;;;5.97;2.63;;;21.70;99.90;;;;;;4974198;28;20026;-63
2021/09/27 09:02:50;;;;;;;5.18;2.35;;;21.70;99.90;;;;;;4955673;28;20051;-63
2021/09/27 09:05:26;;;;;;;6.65;2.30;;;21.70;99.90;;;;;;4957571;28;20510;-65
2021/09/27 09:08:00;;;;;;;6.28;2.85;;;21.70;99.90;;;;;;4973706;28;20022;-63
2021/09/27 09:11:06;;;;;;;3.53;2.58;;;21.80;99.90;;;;;;4973266;28;20027;-64
2021/09/27 09:13:56;;;;;;;3.75;2.38;;;21.70;99.90;;;;;;4910106;28;20480;-65
2021/09/27 09:16:25;;;;;;;4.47;2.45;;;21.70;99.90;;;;;;4973212;28;20038;-63
2021/09/27 09:18:57;;;;;;;3.90;2.05;;;21.80;99.90;;;;;;4973566;28;20051;-64
2021/09/27 09:21:51;;;;;;;5.47;2.40;;;21.70;99.90;;;;;;4973678;28;20061;-63
2021/09/27 09:24:27;;;;;;;4.47;2.50;;;21.80;99.90;;;;;;4972818;28;20541;-64
2021/09/27 09:26:59;;;;;;;3.90;2.30;;;21.80;99.90;;;;;;4973137;28;20047;-63
2021/09/27 09:29:28;;;;;;;4.40;2.28;;;21.80;99.90;;;;;;4971773;28;20023;-62
2021/09/27 09:31:58;;;;;;;2.60;2.20;;;21.80;99.90;;;;;;4973009;28;20031;-61
2021/09/27 09:34:30;;;;;;;3.85;2.40;;;21.80;99.90;;;;;;4972893;28;20474;-60
2021/09/27 09:37:00;;;;;;;3.25;2.00;;;21.80;99.90;;;;;;4973003;28;20365;-63
2021/09/27 09:39:33;;;;;;;3.10;2.10;;;21.80;99.90;;;;;;4972756;28;20033;-62
2021/09/27 09:42:01;;;;;;;4.13;2.42;;;21.80;99.90;;;;;;4972975;28;20046;-62
2021/09/27 09:44:41;;;;;;;4.93;2.05;;;21.80;99.90;;;;;;4972891;28;20041;-62
2021/09/27 09:47:19;;;;;;;5.75;2.28;;;21.90;99.90;;;;;;4953570;28;20027;-63
2021/09/27 09:50:05;;;;;;;5.18;1.98;;;21.90;99.90;;;;;;4953408;29;20059;-62
2021/09/27 09:52:39;;;;;;;5.35;2.40;;;21.80;99.90;;;;;;4953337;29;20059;-62
2021/09/27 09:55:23;;;;;;;;;;;21.90;99.90;;;;;;4953962;29;20039;-64
2021/09/27 09:57:59;;;;;;;5.45;2.03;;;21.90;99.90;;;;;;4953557;29;19906;-62
2021/09/27 10:00:51;;;;;;;6.18;2.67;;;21.90;99.90;;;;;;4960433;28;20041;-63
2021/09/27 10:03:32;;;;;;;5.57;2.17;;;21.90;99.90;;;;;;4973126;28;20031;-64
2021/09/27 10:06:08;;;;;;;3.42;2.38;;;21.90;99.90;;;;;;4955592;28;20109;-62
2021/09/27 10:08:36;;;;;;;4.82;2.15;;;21.90;99.90;;;;;;4970549;28;20035;-61
2021/09/27 10:11:10;;;;;;;3.75;2.20;;;21.90;99.90;;;;;;4972685;28;20025;-62
2021/09/27 10:13:43;;;;;;;;;;;21.90;99.90;;;;;;4972225;28;20364;-61
2021/09/27 10:16:13;;;;;;;6.40;2.15;;;21.80;99.90;;;;;;4972451;28;20358;-64
2021/09/27 10:18:41;;;;;;;3.97;2.00;;;21.80;99.90;;;;;;4970509;28;20034;-65
2021/09/27 10:21:18;;;;;;;3.40;2.10;;;21.80;99.90;;;;;;4971567;28;20019;-64
2021/09/27 10:23:51;;;;;;;4.18;2.00;;;21.80;99.90;;;;;;4971882;28;20494;-64
2021/09/27 10:26:34;;;;;;;5.43;1.80;;;21.80;99.90;;;;;;4972527;28;20035;-66
2021/09/27 10:29:07;;;;;;;5.00;1.98;;;21.80;99.90;;;;;;4958548;28;20031;-64
2021/09/27 10:31:40;;;;;;;4.53;1.77;;;21.70;99.90;;;;;;4952889;29;20051;-64
2021/09/27 10:34:15;;;;;;;3.03;1.90;;;21.70;99.90;;;;;;4953042;29;20098;-64
2021/09/27 10:36:45;;;;;;;3.08;1.80;;;21.70;99.90;;;;;;4952866;28;20037;-66
2021/09/27 10:39:12;;;;;;;3.10;1.92;;;21.70;99.90;;;;;;4934392;29;20114;-65
2021/09/27 10:41:38;;;;;;;2.40;1.60;;;21.70;99.90;;;;;;4952708;29;20419;-65
2021/09/27 10:44:13;;;;;;;2.85;1.50;;;21.70;99.90;;;;;;4953124;28;20109;-65
2021/09/27 10:46:41;;;;;;;5.65;2.13;;;21.70;99.90;;;;;;4952492;28;20023;-65
2021/09/27 10:49:34;;;;;;;3.17;2.00;;;21.70;99.90;;;;;;4953148;29;20435;-65
2021/09/27 10:52:21;;;;;;;3.47;1.63;;;21.70;99.90;;;;;;4951845;29;20126;-64
2021/09/27 10:55:10;;;;;;;5.07;1.73;;;21.80;99.90;;;;;;4952560;29;20046;-65
2021/09/27 10:57:59;;;;;;;2.47;1.60;;;21.70;99.90;;;;;;4951117;28;20102;-65
2021/09/27 11:00:37;;;;;;;3.33;1.60;;;21.70;99.90;;;;;;4952583;29;20451;-64
2021/09/27 11:03:20;;;;;;;2.40;1.40;;;21.70;99.90;;;;;;4936918;29;20032;-66
2021/09/27 11:06:19;;;;;;;4.13;1.40;;;21.80;99.90;;;;;;4935534;29;20035;-64
2021/09/27 11:08:44;;;;;;;1.92;1.15;;;21.80;99.90;;;;;;4950968;29;20451;-64
2021/09/27 11:11:28;;;;;;;3.78;1.80;;;21.80;99.90;;;;;;4952861;28;20459;-65
2021/09/27 11:13:55;;;;;;;2.88;1.42;;;21.80;99.90;;;;;;4944420;29;20519;-63
2021/09/27 11:16:29;;;;;;;2.63;1.50;;;21.80;99.90;;;;;;4948677;28;20457;-63
2021/09/27 11:19:06;;;;;;;4.78;1.70;;;21.80;99.90;;;;;;4951704;28;20019;-63
2021/09/27 11:21:46;;;;;;;3.67;1.55;;;21.80;99.90;;;;;;4951057;28;20035;-63
2021/09/27 11:24:12;;;;;;;2.95;1.58;;;21.80;99.90;;;;;;4951474;28;20083;-63
2021/09/27 11:26:45;;;;;;;4.60;1.80;;;21.80;99.90;;;;;;4973977;28;20022;-63
2021/09/27 11:29:14;;;;;;;3.97;1.70;;;21.80;99.90;;;;;;4974257;28;20050;-64
2021/09/27 11:31:42;;;;;;;4.53;1.77;;;21.90;99.90;;;;;;4971169;28;20018;-63
2021/09/27 11:34:42;;;;;;;5.45;1.67;;;21.80;99.90;;;;;;4974102;28;20069;-64
2021/09/27 11:37:27;;;;;;;3.50;1.85;;;21.80;99.90;;;;;;4972763;28;20035;-64
2021/09/27 11:40:13;;;;;;;3.33;1.55;;;21.90;99.90;;;;;;4973841;28;20052;-64
2021/09/27 11:42:42;;;;;;;3.90;1.85;;;21.80;99.90;;;;;;4970921;28;20035;-63
2021/09/27 11:45:41;;;;;;;3.92;1.58;;;21.90;99.90;;;;;;4957159;28;20031;-64
2021/09/27 11:48:30;;;;;;;5.45;1.63;;;21.90;99.90;;;;;;4974275;28;20027;-63
2021/09/27 11:51:21;;;;;;;2.53;1.50;;;21.90;99.90;;;;;;4975110;28;20023;-64
2021/09/27 11:54:24;;;;;;;3.40;1.70;;;21.90;99.90;;;;;;4944650;28;20064;-64
2021/09/27 11:57:16;;;;;;;2.63;1.60;;;21.90;99.90;;;;;;4955853;28;20050;-64
2021/09/27 12:00:19;;;;;;;2.50;1.30;;;21.90;99.90;;;;;;4955507;28;20058;-64
2021/09/27 12:03:21;;;;;;;3.85;1.63;;;21.90;99.90;;;;;;4966058;28;20458;-62
2021/09/27 12:06:16;;;;;;;3.47;1.38;;;21.90;99.90;;;;;;4965140;28;20498;-61
2021/09/27 12:09:00;;;;;;;3.85;1.50;;;21.90;99.90;;;;;;4974352;28;20455;-61
2021/09/27 12:11:27;;;;;;;4.75;1.40;;;21.90;99.90;;;;;;4968194;28;20058;-62
2021/09/27 12:13:59;;;;;;;2.50;1.30;;;22.00;99.90;;;;;;4974877;28;20034;-63
2021/09/27 12:16:39;;;;;;;2.17;1.15;;;22.00;99.90;;;;;;4972380;28;20042;-63
2021/09/27 12:19:17;;;;;;;3.13;1.30;;;22.00;99.90;;;;;;4974716;28;20051;-64
2021/09/27 12:21:52;;;;;;;4.70;1.40;;;22.00;99.90;;;;;;4974574;28;20419;-63
2021/09/27 12:24:27;;;;;;;5.03;1.48;;;22.00;99.90;;;;;;4974015;28;20102;-63
2021/09/27 12:26:54;;;;;;;2.40;1.23;;;22.10;99.90;;;;;;4955569;28;20070;-63
2021/09/27 12:29:25;;;;;;;3.63;1.40;;;22.10;99.90;;;;;;4955157;29;20031;-63
2021/09/27 12:31:57;;;;;;;3.53;1.15;;;22.10;99.90;;;;;;4971544;28;20031;-62
2021/09/27 12:34:33;;;;;;;3.40;1.30;;;22.10;99.90;;;;;;4974610;28;20027;-63
2021/09/27 12:37:00;;;;;;;2.40;1.15;;;22.10;99.90;;;;;;4973865;28;20023;-63
2021/09/27 12:39:29;;;;;;;2.33;1.25;;;22.10;99.90;;;;;;4974193;28;20487;-63
2021/09/27 12:41:57;;;;;;;3.03;1.33;;;22.20;99.90;;;;;;4974500;28;20025;-63
2021/09/27 12:44:28;;;;;;;3.65;1.45;;;22.20;99.90;;;;;;4974594;28;20384;-63
2021/09/27 12:46:56;;;;;;;3.55;1.40;;;22.20;99.90;;;;;;4974092;28;20034;-62
2021/09/27 12:49:45;;;;;;;3.60;1.30;;;22.20;99.90;;;;;;4974648;28;20030;-63
2021/09/27 12:52:18;;;;;;;2.60;1.10;;;22.20;99.90;;;;;;4974034;28;20030;-62
2021/09/27 12:54:50;;;;;;;2.83;1.35;;;22.20;99.90;;;;;;4973749;28;20058;-63
2021/09/27 12:57:22;;;;;;;4.15;1.48;;;22.20;99.90;;;;;;4973819;28;20031;-63
2021/09/27 12:59:48;;;;;;;3.90;1.40;;;22.30;99.90;;;;;;4973959;28;20464;-63
2021/09/27 13:02:15;;;;;;;2.53;1.17;;;22.30;99.90;;;;;;4972017;28;20049;-61
2021/09/27 13:04:50;;;;;;;3.70;1.13;;;22.30;99.90;;;;;;4973570;28;20037;-63
2021/09/27 13:07:18;;;;;;;3.33;1.70;;;22.30;99.90;;;;;;4973646;28;20026;-64
2021/09/27 13:10:02;;;;;;;2.33;1.30;;;22.30;99.90;;;;;;4956638;28;20439;-63
2021/09/27 13:12:38;;;;;;;3.13;1.20;;;22.30;99.90;;;;;;4973353;28;20018;-63
2021/09/27 13:15:11;;;;;;;5.63;1.58;;;22.30;99.90;;;;;;4973344;28;20042;-64
2021/09/27 13:17:38;;;;;;;2.97;1.30;;;22.30;99.90;;;;;;4973277;28;20030;-64
2021/09/27 13:20:28;;;;;;;2.92;1.30;;;22.40;99.90;;;;;;4973715;28;20043;-63
2021/09/27 13:22:54;;;;;;;2.78;1.10;;;22.40;99.90;;;;;;4973750;28;20030;-62
2021/09/27 13:25:37;;;;;;;2.63;1.30;;;22.40;99.90;;;;;;4973308;28;20035;-63
2021/09/27 13:28:04;;;;;;;3.87;1.30;;;22.40;99.90;;;;;;4973321;28;20023;-64
2021/09/27 13:30:33;;;;;;;3.88;1.27;;;22.40;99.90;;;;;;4972448;28;20282;-64
2021/09/27 13:33:04;;;;;;;3.20;1.10;;;22.40;99.90;;;;;;4972992;28;20026;-64
2021/09/27 13:35:39;;;;;;;5.55;1.33;;;22.40;99.90;;;;;;4972677;28;20045;-63
2021/09/27 13:38:10;;;;;;;2.72;1.08;;;22.40;99.90;;;;;;4955262;28;20114;-63